Time;durP1;ratioP1;P1;durP2;ratioP2;P2;SDS_P1;SDS_P2;PMS_P1;PMS_P2;Temp;Humidity;BMP_temperature;BMP_pressure;BME280_temperature;BME280_humidity;BME280_pressure;Samples;Min_cycle;Max_cycle;Signal;HPM_P1;HPM_P2
2020/12/06 00:00:03;;;;;;;41.23;21.20;;;4.90;99.90;;;;;;5049093;28;20732;-54
2020/12/06 00:02:29;;;;;;;37.55;21.15;;;4.90;99.90;;;;;;5048350;28;20431;-54
2020/12/06 00:04:55;;;;;;;36.60;21.43;;;5.50;99.90;;;;;;5048232;28;20514;-54
2020/12/06 00:07:20;;;;;;;35.77;20.60;;;5.00;99.90;;;;;;5064392;28;20437;-53
2020/12/06 00:09:47;;;;;;;36.97;20.95;;;7.20;99.90;;;;;;5082009;28;20381;-53
2020/12/06 00:12:12;;;;;;;33.88;19.35;;;5.00;99.90;;;;;;5047867;28;20397;-56
2020/12/06 00:14:38;;;;;;;35.57;20.07;;;5.90;99.90;;;;;;5049630;28;20423;-54
2020/12/06 00:17:03;;;;;;;37.00;20.20;;;5.00;99.90;;;;;;5047804;28;20779;-53
2020/12/06 00:19:29;;;;;;;36.17;19.90;;;5.10;99.90;;;;;;5048882;28;20389;-54
2020/12/06 00:21:55;;;;;;;35.43;19.57;;;5.20;99.90;;;;;;5048008;28;20412;-53
2020/12/06 00:24:21;;;;;;;36.53;20.55;;;5.20;99.90;;;;;;5048791;28;20875;-54
2020/12/06 00:26:47;;;;;;;37.33;20.67;;;5.10;99.90;;;;;;5049503;28;20443;-53
2020/12/06 00:29:13;;;;;;;40.43;20.90;;;5.10;99.90;;;;;;5047756;28;20448;-56
2020/12/06 00:31:38;;;;;;;37.55;21.70;;;2.90;99.90;;;;;;5048925;28;20377;-54
2020/12/06 00:34:04;;;;;;;41.43;22.40;;;5.10;99.90;;;;;;5047733;28;20419;-54
2020/12/06 00:36:30;;;;;;;38.78;21.65;;;5.10;99.90;;;;;;5046593;28;20412;-54
2020/12/06 00:38:55;;;;;;;37.20;21.55;;;5.00;99.90;;;;;;5051947;28;20385;-54
2020/12/06 00:41:23;;;;;;;41.13;21.30;;;5.70;99.90;;;;;;5050991;28;20482;-53
2020/12/06 00:43:48;;;;;;;38.40;20.80;;;4.80;99.90;;;;;;5052719;28;20396;-55
2020/12/06 00:46:20;;;;;;;42.00;21.20;;;4.80;99.90;;;;;;5051154;28;20405;-59
2020/12/06 00:48:47;;;;;;;37.05;20.42;;;4.70;99.90;;;;;;5051512;28;20403;-54
2020/12/06 00:51:12;;;;;;;41.90;22.17;;;6.20;99.90;;;;;;5053130;28;20416;-54
2020/12/06 00:53:41;;;;;;;42.65;21.75;;;6.40;99.90;;;;;;5049596;28;20398;-54
2020/12/06 00:56:06;;;;;;;43.30;25.10;;;4.80;99.90;;;;;;5053412;28;20393;-54
2020/12/06 00:58:32;;;;;;;46.20;23.63;;;4.90;99.90;;;;;;5050529;28;20461;-53
2020/12/06 01:00:58;;;;;;;56.22;23.25;;;4.80;99.90;;;;;;5085278;28;20463;-53
2020/12/06 01:03:23;;;;;;;57.20;23.30;;;4.80;99.90;;;;;;5049350;28;20404;-55
2020/12/06 01:05:49;;;;;;;63.78;25.45;;;4.70;99.90;;;;;;5052230;28;20392;-54
2020/12/06 01:08:14;;;;;;;67.43;23.90;;;4.60;99.90;;;;;;5051977;28;20450;-58
2020/12/06 01:10:40;;;;;;;89.03;25.83;;;4.70;99.90;;;;;;5052371;28;20373;-53
2020/12/06 01:13:06;;;;;;;56.85;25.00;;;4.70;99.90;;;;;;5045477;28;20488;-53
2020/12/06 01:15:31;;;;;;;67.13;26.37;;;4.70;99.90;;;;;;5066018;28;20921;-53
2020/12/06 01:17:57;;;;;;;67.65;24.50;;;6.10;99.90;;;;;;5032281;28;20387;-53
2020/12/06 01:20:22;;;;;;;70.30;26.77;;;4.60;99.90;;;;;;5043325;28;20413;-54
2020/12/06 01:22:48;;;;;;;58.55;23.95;;;4.40;99.90;;;;;;5052695;28;20492;-54
2020/12/06 01:25:14;;;;;;;53.87;24.50;;;4.50;99.90;;;;;;5052043;28;20396;-59
2020/12/06 01:27:39;;;;;;;51.70;25.08;;;4.50;99.90;;;;;;5050714;28;20428;-56
2020/12/06 01:30:06;;;;;;;60.27;25.93;;;5.50;99.90;;;;;;5033050;28;20508;-53
2020/12/06 01:32:32;;;;;;;56.55;25.02;;;4.50;99.90;;;;;;5045642;28;20397;-53
2020/12/06 01:35:00;;;;;;;62.63;26.63;;;4.40;99.90;;;;;;5051958;28;20382;-54
2020/12/06 01:37:25;;;;;;;54.00;25.55;;;4.50;99.90;;;;;;5051966;28;20436;-54
2020/12/06 01:39:51;;;;;;;78.75;28.20;;;4.50;99.90;;;;;;5050243;28;20393;-54
2020/12/06 01:42:17;;;;;;;68.60;28.40;;;5.70;99.90;;;;;;5051632;28;20431;-58
2020/12/06 01:44:42;;;;;;;72.05;29.25;;;4.30;99.90;;;;;;5050103;28;20928;-53
2020/12/06 01:47:09;;;;;;;61.23;27.27;;;4.30;99.90;;;;;;5052405;28;20759;-53
2020/12/06 01:49:37;;;;;;;64.80;28.20;;;4.80;99.90;;;;;;5049780;28;20409;-54
2020/12/06 01:52:05;;;;;;;67.18;28.15;;;6.80;99.90;;;;;;5051716;28;20393;-53
2020/12/06 01:54:35;;;;;;;77.80;29.98;;;3.90;99.90;;;;;;5050060;28;20791;-55
2020/12/06 01:57:04;;;;;;;63.72;27.48;;;4.20;99.90;;;;;;5051748;28;20464;-54
2020/12/06 01:59:30;;;;;;;60.50;29.08;;;3.90;99.90;;;;;;5050009;28;20397;-52
2020/12/06 02:02:04;;;;;;;57.33;26.67;;;4.10;99.90;;;;;;5051438;28;20397;-54
2020/12/06 02:04:31;;;;;;;55.88;25.67;;;4.10;99.90;;;;;;5051130;28;20373;-55
2020/12/06 02:06:58;;;;;;;51.35;26.00;;;4.10;99.90;;;;;;5083021;28;20410;-54
2020/12/06 02:09:26;;;;;;;54.20;24.90;;;4.40;99.90;;;;;;5048608;28;20736;-53
2020/12/06 02:11:51;;;;;;;50.22;24.88;;;4.20;99.90;;;;;;5050287;28;20396;-53
2020/12/06 02:14:18;;;;;;;47.40;23.90;;;6.30;99.90;;;;;;5051714;28;20732;-57
2020/12/06 02:16:44;;;;;;;48.92;23.65;;;4.40;99.90;;;;;;5048193;28;20887;-53
2020/12/06 02:19:11;;;;;;;52.63;25.88;;;4.90;99.90;;;;;;5050943;28;20394;-54
2020/12/06 02:21:41;;;;;;;56.95;24.90;;;4.40;99.90;;;;;;5065184;28;20796;-56
2020/12/06 02:24:11;;;;;;;51.25;24.45;;;4.40;99.90;;;;;;5081726;28;20891;-53
2020/12/06 02:26:49;;;;;;;53.93;25.23;;;4.40;99.90;;;;;;5050596;28;20444;-53
2020/12/06 02:29:15;;;;;;;51.40;25.42;;;4.30;99.90;;;;;;5051498;28;20401;-54
2020/12/06 02:31:41;;;;;;;52.08;25.08;;;4.30;99.90;;;;;;5048683;28;20871;-53
2020/12/06 02:34:08;;;;;;;55.78;25.55;;;4.50;99.90;;;;;;5051327;28;20392;-53
2020/12/06 02:36:33;;;;;;;64.60;26.40;;;4.30;99.90;;;;;;5050544;28;20871;-54
2020/12/06 02:38:59;;;;;;;57.90;24.25;;;5.40;99.90;;;;;;5049919;28;20488;-58
2020/12/06 02:41:39;;;;;;;55.75;25.55;;;4.10;99.90;;;;;;5050554;28;20390;-53
2020/12/06 02:44:06;;;;;;;62.17;25.38;;;6.40;99.90;;;;;;5051178;28;20381;-54
2020/12/06 02:46:33;;;;;;;62.67;27.02;;;3.80;99.90;;;;;;5047999;28;20421;-54
2020/12/06 02:48:58;;;;;;;75.20;28.05;;;6.50;99.90;;;;;;5049960;28;20905;-54
2020/12/06 02:51:24;;;;;;;69.80;27.13;;;3.60;99.90;;;;;;5048858;28;20440;-53
2020/12/06 02:53:50;;;;;;;67.10;26.02;;;3.70;99.90;;;;;;5051149;28;20477;-54
2020/12/06 02:56:16;;;;;;;71.93;27.30;;;6.20;99.90;;;;;;5048468;28;20451;-52
2020/12/06 02:58:41;;;;;;;54.88;24.90;;;3.60;99.90;;;;;;5050387;28;20994;-53
2020/12/06 03:01:07;;;;;;;61.85;25.33;;;3.60;99.90;;;;;;5048139;28;20470;-51
2020/12/06 03:03:32;;;;;;;69.63;27.40;;;3.60;99.90;;;;;;5050542;28;20924;-53
2020/12/06 03:05:58;;;;;;;68.53;25.87;;;3.70;99.90;;;;;;5048896;28;20413;-51
2020/12/06 03:08:24;;;;;;;56.60;23.98;;;3.70;99.90;;;;;;5049691;28;20464;-51
2020/12/06 03:10:49;;;;;;;62.70;24.80;;;3.60;99.90;;;;;;5050523;28;20895;-51
2020/12/06 03:13:15;;;;;;;56.20;25.40;;;3.70;99.90;;;;;;5049925;28;20384;-51
2020/12/06 03:15:40;;;;;;;55.77;24.00;;;6.30;99.90;;;;;;5047862;28;20401;-51
2020/12/06 03:18:06;;;;;;;57.63;24.95;;;3.80;99.90;;;;;;5050593;28;20494;-51
2020/12/06 03:20:32;;;;;;;63.77;26.10;;;4.80;99.90;;;;;;5047682;28;20522;-52
2020/12/06 03:22:59;;;;;;;64.80;24.07;;;6.60;99.90;;;;;;5050581;28;20472;-51
2020/12/06 03:25:25;;;;;;;58.92;25.30;;;3.80;99.90;;;;;;5048881;28;20481;-51
2020/12/06 03:27:51;;;;;;;60.00;24.00;;;3.80;99.90;;;;;;5049360;28;20468;-52
2020/12/06 03:30:16;;;;;;;62.30;24.38;;;5.10;99.90;;;;;;5050671;28;20377;-55
2020/12/06 03:32:42;;;;;;;60.28;24.77;;;2.10;99.90;;;;;;5048321;28;20783;-52
2020/12/06 03:35:08;;;;;;;58.73;23.83;;;3.90;99.90;;;;;;5050459;28;20405;-51
2020/12/06 03:37:33;;;;;;;60.05;25.02;;;4.00;99.90;;;;;;5049853;28;20923;-52
2020/12/06 03:39:59;;;;;;;68.83;25.50;;;4.00;99.90;;;;;;5048781;28;20895;-52
2020/12/06 03:42:25;;;;;;;63.40;25.40;;;4.10;99.90;;;;;;5047748;28;20444;-52
2020/12/06 03:44:50;;;;;;;66.22;24.52;;;4.00;99.90;;;;;;5049730;28;20397;-52
2020/12/06 03:47:17;;;;;;;65.90;25.33;;;3.90;99.90;;;;;;5049729;28;20410;-52
2020/12/06 03:49:43;;;;;;;77.47;26.58;;;3.90;99.90;;;;;;5048332;28;20405;-52
2020/12/06 03:52:09;;;;;;;67.43;25.63;;;1.90;99.90;;;;;;5047488;28;20409;-52
2020/12/06 03:54:34;;;;;;;67.30;25.98;;;3.80;99.90;;;;;;5048037;28;20967;-53
2020/12/06 03:57:00;;;;;;;75.40;26.63;;;3.80;99.90;;;;;;5049005;28;20408;-53
2020/12/06 03:59:26;;;;;;;66.78;26.52;;;6.40;99.90;;;;;;5048056;28;20500;-55
2020/12/06 04:01:51;;;;;;;73.93;27.20;;;3.70;99.90;;;;;;5048030;28;20882;-53
2020/12/06 04:04:17;;;;;;;72.17;25.50;;;5.50;99.90;;;;;;5047954;28;20417;-58
2020/12/06 04:06:42;;;;;;;63.92;26.00;;;3.70;99.90;;;;;;5048105;28;20492;-53
2020/12/06 04:09:08;;;;;;;61.90;24.93;;;3.80;99.90;;;;;;5049674;28;20411;-53
2020/12/06 04:11:34;;;;;;;60.65;24.52;;;3.80;99.90;;;;;;5047011;28;20404;-54
2020/12/06 04:13:59;;;;;;;60.53;24.30;;;3.90;99.90;;;;;;5049827;28;20385;-53
2020/12/06 04:16:25;;;;;;;56.90;26.33;;;4.00;99.90;;;;;;5048664;28;20409;-55
2020/12/06 04:18:50;;;;;;;57.72;23.88;;;3.90;99.90;;;;;;5048363;28;20447;-53
2020/12/06 04:21:16;;;;;;;55.90;23.80;;;6.00;99.90;;;;;;5049911;28;20476;-53
2020/12/06 04:23:42;;;;;;;54.35;23.33;;;3.70;99.90;;;;;;5047275;28;20400;-53
2020/12/06 04:26:07;;;;;;;56.72;23.88;;;4.30;99.90;;;;;;5049674;28;20455;-53
2020/12/06 04:28:33;;;;;;;47.83;23.07;;;4.90;99.90;;;;;;5049140;28;20413;-53
2020/12/06 04:30:59;;;;;;;49.00;21.10;;;3.80;99.90;;;;;;5047786;28;20402;-53
2020/12/06 04:33:24;;;;;;;50.10;23.33;;;3.80;99.90;;;;;;5048024;28;20414;-53
2020/12/06 04:35:50;;;;;;;53.97;22.73;;;3.70;99.90;;;;;;5048844;28;20747;-53
2020/12/06 04:38:17;;;;;;;52.75;23.40;;;3.70;99.90;;;;;;5049997;28;20839;-53
2020/12/06 04:40:43;;;;;;;50.03;22.80;;;3.70;99.90;;;;;;5048066;28;20395;-53
2020/12/06 04:43:08;;;;;;;46.30;22.60;;;6.20;99.90;;;;;;5049649;28;20460;-53
2020/12/06 04:45:34;;;;;;;53.10;24.10;;;3.90;99.90;;;;;;5047854;28;20393;-54
2020/12/06 04:48:06;;;;;;;46.78;23.02;;;5.40;99.90;;;;;;5048445;28;20416;-53
2020/12/06 04:50:35;;;;;;;51.83;22.80;;;3.90;99.90;;;;;;5048472;28;20385;-54
2020/12/06 04:53:02;;;;;;;47.83;23.15;;;4.10;99.90;;;;;;5048718;28;20417;-53
2020/12/06 04:55:31;;;;;;;50.88;21.98;;;4.10;99.90;;;;;;5047776;28;20476;-53
2020/12/06 04:57:58;;;;;;;50.60;23.10;;;6.30;99.90;;;;;;5049507;28;20381;-53
2020/12/06 05:00:33;;;;;;;53.13;23.77;;;3.80;99.90;;;;;;5047296;28;20397;-56
2020/12/06 05:03:09;;;;;;;48.13;23.90;;;3.80;99.90;;;;;;5047917;28;20465;-53
2020/12/06 05:05:40;;;;;;;54.08;23.63;;;3.80;99.90;;;;;;5048298;28;20386;-53
2020/12/06 05:08:11;;;;;;;51.40;23.85;;;3.80;99.90;;;;;;5048171;28;20409;-53
2020/12/06 05:10:48;;;;;;;51.92;23.55;;;3.80;99.90;;;;;;5047356;28;20443;-53
2020/12/06 05:13:15;;;;;;;45.95;21.67;;;5.40;99.90;;;;;;5046643;28;20879;-53
2020/12/06 05:15:41;;;;;;;47.45;21.83;;;4.00;99.90;;;;;;5048166;28;20460;-53
2020/12/06 05:18:07;;;;;;;47.22;23.27;;;5.20;99.90;;;;;;5047287;28;20397;-53
2020/12/06 05:20:35;;;;;;;48.80;23.03;;;4.10;99.90;;;;;;5048384;28;20439;-53
2020/12/06 05:23:01;;;;;;;44.95;21.20;;;5.30;99.90;;;;;;5040910;28;20447;-53
2020/12/06 05:25:27;;;;;;;51.67;23.15;;;4.40;99.90;;;;;;5047600;28;21042;-54
2020/12/06 05:27:53;;;;;;;49.53;22.52;;;5.30;99.90;;;;;;5042963;28;20430;-53
2020/12/06 05:30:18;;;;;;;46.28;21.80;;;4.10;99.90;;;;;;5042614;28;20401;-53
2020/12/06 05:32:44;;;;;;;49.27;22.90;;;4.00;99.90;;;;;;5053256;28;20412;-55
2020/12/06 05:35:11;;;;;;;45.90;23.08;;;4.00;99.90;;;;;;5040579;28;20521;-53
2020/12/06 05:37:38;;;;;;;48.22;21.80;;;6.50;99.90;;;;;;5051715;28;20925;-53
2020/12/06 05:40:09;;;;;;;48.45;22.42;;;4.30;99.90;;;;;;5051726;28;20382;-53
2020/12/06 05:42:37;;;;;;;48.83;22.63;;;4.30;99.90;;;;;;5049141;28;20466;-53
2020/12/06 05:45:04;;;;;;;50.25;21.83;;;4.70;99.90;;;;;;5082885;28;20496;-53
2020/12/06 05:47:30;;;;;;;46.38;21.33;;;4.20;99.90;;;;;;5051200;28;20405;-53
2020/12/06 05:49:56;;;;;;;48.67;22.30;;;4.10;99.90;;;;;;5052546;28;20401;-53
2020/12/06 05:52:23;;;;;;;50.30;22.17;;;4.00;99.90;;;;;;5050015;28;20417;-59
2020/12/06 05:54:49;;;;;;;42.58;20.75;;;5.40;99.90;;;;;;5050813;28;20409;-53
2020/12/06 05:57:15;;;;;;;45.75;21.23;;;5.40;99.90;;;;;;5052040;28;20387;-53
2020/12/06 05:59:42;;;;;;;45.95;21.02;;;4.50;99.90;;;;;;5049523;28;20878;-53
2020/12/06 06:02:08;;;;;;;44.42;21.85;;;4.10;99.90;;;;;;5052029;28;20449;-53
2020/12/06 06:04:39;;;;;;;49.15;23.75;;;4.10;99.90;;;;;;5048542;28;20801;-53
2020/12/06 06:07:10;;;;;;;44.67;21.95;;;3.90;99.90;;;;;;5052020;28;20420;-53
2020/12/06 06:09:42;;;;;;;51.40;23.70;;;3.90;99.90;;;;;;5049443;28;20401;-53
2020/12/06 06:12:31;;;;;;;55.80;25.42;;;3.90;99.90;;;;;;5052063;28;20480;-53
2020/12/06 06:15:02;;;;;;;54.63;24.60;;;3.80;99.90;;;;;;5051259;28;20388;-53
2020/12/06 06:17:29;;;;;;;49.28;23.08;;;3.90;99.90;;;;;;5050387;28;20393;-53
2020/12/06 06:19:55;;;;;;;50.87;22.90;;;3.90;99.90;;;;;;5051203;28;20377;-53
2020/12/06 06:22:26;;;;;;;54.60;23.80;;;3.90;99.90;;;;;;5050190;28;20397;-59
2020/12/06 06:24:53;;;;;;;57.65;23.85;;;5.40;99.90;;;;;;5051460;28;20731;-53
2020/12/06 06:27:20;;;;;;;62.83;25.00;;;3.90;99.90;;;;;;5048326;28;20409;-56
2020/12/06 06:29:48;;;;;;;69.32;25.15;;;5.90;99.90;;;;;;5050980;28;20385;-53
2020/12/06 06:32:15;;;;;;;72.78;23.98;;;3.90;99.90;;;;;;5049361;28;20887;-53
2020/12/06 06:34:42;;;;;;;78.85;25.08;;;5.10;99.90;;;;;;5050724;28;20471;-54
2020/12/06 06:37:13;;;;;;;99.30;26.85;;;4.90;99.90;;;;;;5051955;28;20451;-53
2020/12/06 06:39:39;;;;;;;83.57;26.73;;;4.00;99.90;;;;;;5048600;28;20401;-53
2020/12/06 06:42:09;;;;;;;96.63;25.70;;;6.00;99.90;;;;;;5051508;28;20420;-53
2020/12/06 06:44:37;;;;;;;120.77;29.97;;;3.90;99.90;;;;;;5048474;28;20444;-53
2020/12/06 06:47:05;;;;;;;169.15;31.55;;;5.80;99.90;;;;;;5051208;28;20440;-53
2020/12/06 06:49:34;;;;;;;109.63;29.13;;;4.00;99.90;;;;;;5050549;28;20388;-53
2020/12/06 06:52:03;;;;;;;87.75;26.17;;;3.90;99.90;;;;;;5049492;28;20397;-52
2020/12/06 06:54:31;;;;;;;119.82;28.30;;;3.90;99.90;;;;;;5080819;28;20393;-54
2020/12/06 06:56:58;;;;;;;235.02;38.78;;;6.60;99.90;;;;;;5043716;28;20954;-53
2020/12/06 06:59:54;;;;;;;208.23;35.92;;;4.00;99.90;;;;;;5045352;28;20401;-54
2020/12/06 07:02:40;;;;;;;175.75;32.63;;;6.40;99.90;;;;;;5036269;28;20408;-59
2020/12/06 07:05:11;;;;;;;162.82;31.08;;;3.90;99.90;;;;;;5048695;28;20437;-53
2020/12/06 07:07:46;;;;;;;167.15;32.88;;;3.90;99.90;;;;;;5049400;28;20406;-53
2020/12/06 07:10:17;;;;;;;143.90;29.50;;;3.80;99.90;;;;;;5050185;28;20386;-53
2020/12/06 07:12:46;;;;;;;138.02;32.17;;;4.60;99.90;;;;;;5046330;28;20454;-53
2020/12/06 07:15:12;;;;;;;163.45;32.33;;;5.70;99.90;;;;;;5034385;28;20421;-54
2020/12/06 07:17:38;;;;;;;162.02;31.83;;;4.00;99.90;;;;;;5047766;28;20484;-53
2020/12/06 07:20:06;;;;;;;145.52;30.73;;;3.80;99.90;;;;;;5038675;28;20753;-53
2020/12/06 07:22:32;;;;;;;157.35;31.48;;;3.90;99.90;;;;;;5038988;28;20431;-54
2020/12/06 07:24:59;;;;;;;139.57;26.95;;;3.90;99.90;;;;;;5044444;28;20389;-53
2020/12/06 07:27:24;;;;;;;122.57;29.47;;;3.90;99.90;;;;;;5040627;28;20415;-53
2020/12/06 07:29:50;;;;;;;130.53;27.90;;;4.90;99.90;;;;;;5039254;28;21031;-54
2020/12/06 07:32:18;;;;;;;118.75;26.92;;;4.00;99.90;;;;;;5041823;28;20387;-53
2020/12/06 07:34:44;;;;;;;103.22;26.45;;;4.10;99.90;;;;;;5043231;28;20578;-53
2020/12/06 07:37:10;;;;;;;136.40;28.60;;;4.10;99.90;;;;;;5043066;28;20439;-53
2020/12/06 07:39:47;;;;;;;145.10;29.07;;;6.00;99.90;;;;;;5046381;28;20420;-54
2020/12/06 07:42:27;;;;;;;93.55;26.13;;;4.20;99.90;;;;;;5046846;28;20404;-53
2020/12/06 07:44:54;;;;;;;96.80;23.95;;;4.20;99.90;;;;;;5044566;28;20423;-54
2020/12/06 07:47:21;;;;;;;111.45;26.98;;;4.90;99.90;;;;;;5044562;28;20413;-53
2020/12/06 07:49:49;;;;;;;117.93;27.35;;;2.30;99.90;;;;;;5046249;28;20432;-53
2020/12/06 07:52:15;;;;;;;114.38;27.75;;;4.20;99.90;;;;;;5047480;28;20425;-54
2020/12/06 07:54:50;;;;;;;199.02;34.42;;;4.30;99.90;;;;;;5042046;28;20471;-53
2020/12/06 07:57:17;;;;;;;152.13;30.33;;;4.40;99.90;;;;;;5038423;28;20456;-53
2020/12/06 07:59:43;;;;;;;351.42;47.25;;;4.20;99.90;;;;;;5042139;28;20633;-53
2020/12/06 08:02:10;;;;;;;182.57;29.13;;;4.20;99.90;;;;;;5047442;28;20898;-53
2020/12/06 08:04:36;;;;;;;102.43;24.58;;;5.20;99.90;;;;;;5068316;28;20402;-54
2020/12/06 08:07:17;;;;;;;108.33;26.20;;;4.20;99.90;;;;;;5042021;28;20506;-54
2020/12/06 08:09:45;;;;;;;94.10;22.00;;;5.10;99.90;;;;;;5056558;28;20412;-54
2020/12/06 08:12:13;;;;;;;104.72;23.27;;;4.30;99.90;;;;;;5042088;28;20466;-53
2020/12/06 08:14:39;;;;;;;69.38;19.50;;;4.30;99.90;;;;;;5039845;28;20424;-52
2020/12/06 08:17:05;;;;;;;109.73;23.97;;;4.30;99.90;;;;;;5035562;28;20421;-52
2020/12/06 08:19:31;;;;;;;103.85;21.70;;;5.00;99.90;;;;;;5037363;28;20425;-53
2020/12/06 08:22:00;;;;;;;98.43;24.10;;;4.10;99.90;;;;;;5044041;28;20398;-52
2020/12/06 08:24:29;;;;;;;70.23;21.10;;;6.40;99.90;;;;;;5045321;28;20763;-56
2020/12/06 08:26:56;;;;;;;82.97;19.52;;;4.20;99.90;;;;;;5041117;28;20406;-52
2020/12/06 08:29:42;;;;;;;65.95;19.15;;;5.40;99.90;;;;;;5042314;28;20887;-57
2020/12/06 08:32:08;;;;;;;58.90;17.48;;;4.30;99.90;;;;;;5037489;28;20413;-54
2020/12/06 08:34:34;;;;;;;60.17;18.15;;;4.40;99.90;;;;;;5042398;28;20798;-53
2020/12/06 08:37:19;;;;;;;63.77;18.80;;;4.40;99.90;;;;;;5040572;28;20403;-54
2020/12/06 08:39:46;;;;;;;63.40;16.55;;;4.50;99.90;;;;;;5035058;28;20409;-53
2020/12/06 08:42:21;;;;;;;51.30;16.83;;;6.60;99.90;;;;;;5042544;28;20463;-54
2020/12/06 08:44:54;;;;;;;62.80;17.88;;;6.40;99.90;;;;;;5046474;28;20502;-55
2020/12/06 08:47:21;;;;;;;61.45;17.98;;;4.40;99.90;;;;;;5046664;28;20953;-54
2020/12/06 08:49:46;;;;;;;55.60;17.10;;;4.50;99.90;;;;;;5039969;28;20451;-53
2020/12/06 08:52:21;;;;;;;55.20;17.20;;;5.40;99.90;;;;;;5039907;28;20791;-53
2020/12/06 08:54:48;;;;;;;52.05;17.02;;;6.00;99.90;;;;;;5043548;28;20382;-53
2020/12/06 08:57:15;;;;;;;59.80;17.40;;;4.60;99.90;;;;;;5044985;28;20809;-52
2020/12/06 08:59:42;;;;;;;62.45;16.90;;;4.60;99.90;;;;;;5046456;28;21235;-53
2020/12/06 09:02:09;;;;;;;57.70;16.58;;;5.40;99.90;;;;;;5041429;28;20404;-57
2020/12/06 09:04:36;;;;;;;56.72;17.65;;;4.80;99.90;;;;;;5046250;28;20396;-53
2020/12/06 09:07:06;;;;;;;50.27;16.13;;;4.90;99.90;;;;;;5045886;28;20410;-53
2020/12/06 09:09:32;;;;;;;60.20;17.42;;;4.90;99.90;;;;;;5046443;28;20409;-53
2020/12/06 09:11:58;;;;;;;52.47;17.50;;;4.90;99.90;;;;;;5043673;28;20409;-53
2020/12/06 09:14:24;;;;;;;63.28;18.17;;;4.90;99.90;;;;;;5048046;28;20466;-54
2020/12/06 09:16:50;;;;;;;51.42;15.75;;;6.20;99.90;;;;;;5046991;28;20500;-52
2020/12/06 09:19:15;;;;;;;53.95;17.67;;;4.90;99.90;;;;;;5040060;28;20387;-53
2020/12/06 09:21:41;;;;;;;56.57;16.70;;;6.10;99.90;;;;;;5036924;28;20496;-54
2020/12/06 09:24:07;;;;;;;61.93;17.13;;;4.80;99.90;;;;;;5041972;28;20405;-53
2020/12/06 09:26:33;;;;;;;53.95;16.67;;;4.80;99.90;;;;;;5048199;28;20460;-54
2020/12/06 09:28:59;;;;;;;52.47;15.90;;;4.70;99.90;;;;;;5040531;28;20494;-53
2020/12/06 09:31:26;;;;;;;73.13;23.17;;;4.70;99.90;;;;;;5046340;28;20870;-54
2020/12/06 09:33:52;;;;;;;55.75;16.70;;;4.70;99.90;;;;;;5048532;28;20403;-52
2020/12/06 09:36:18;;;;;;;42.65;14.15;;;4.80;99.90;;;;;;5041969;28;20419;-53
2020/12/06 09:38:44;;;;;;;49.35;16.95;;;4.80;99.90;;;;;;5044667;28;20386;-54
2020/12/06 09:41:12;;;;;;;45.70;15.60;;;4.80;99.90;;;;;;5039293;28;20424;-54
2020/12/06 09:43:44;;;;;;;46.60;16.38;;;4.80;99.90;;;;;;5048955;28;20401;-53
2020/12/06 09:46:11;;;;;;;47.20;15.30;;;4.80;99.90;;;;;;5040855;28;20413;-54
2020/12/06 09:48:37;;;;;;;47.80;16.47;;;4.80;99.90;;;;;;5045396;28;20382;-53
2020/12/06 09:51:04;;;;;;;49.53;16.15;;;6.50;99.90;;;;;;5048207;28;20903;-53
2020/12/06 09:53:30;;;;;;;51.80;16.43;;;4.60;99.90;;;;;;5045797;28;20897;-58
2020/12/06 09:55:56;;;;;;;53.73;16.53;;;6.00;99.90;;;;;;5046560;28;20396;-54
2020/12/06 09:58:22;;;;;;;45.95;16.83;;;6.20;99.90;;;;;;5042650;28;20393;-55
2020/12/06 10:00:47;;;;;;;47.05;16.25;;;5.20;99.90;;;;;;5039986;28;20404;-59
2020/12/06 10:03:13;;;;;;;58.43;17.90;;;4.60;99.90;;;;;;5046331;28;20401;-53
2020/12/06 10:05:38;;;;;;;45.90;16.95;;;4.60;99.90;;;;;;5042839;28;20413;-52
2020/12/06 10:08:04;;;;;;;49.27;18.10;;;4.70;99.90;;;;;;5045654;28;20415;-52
2020/12/06 10:10:30;;;;;;;46.03;16.73;;;4.70;99.90;;;;;;5043644;28;20481;-57
2020/12/06 10:12:55;;;;;;;44.63;15.77;;;5.20;99.90;;;;;;5043153;28;20403;-52
2020/12/06 10:15:21;;;;;;;41.53;15.83;;;4.60;99.90;;;;;;5048820;28;20381;-53
2020/12/06 10:17:47;;;;;;;45.40;16.95;;;5.00;99.90;;;;;;5046148;28;20454;-53
2020/12/06 10:20:12;;;;;;;42.60;16.70;;;4.70;99.90;;;;;;5039284;28;20518;-54
2020/12/06 10:22:38;;;;;;;43.33;17.15;;;4.70;99.90;;;;;;5044081;28;20404;-54
2020/12/06 10:25:05;;;;;;;44.17;17.40;;;4.80;99.90;;;;;;5044344;28;20447;-53
2020/12/06 10:27:30;;;;;;;40.47;15.30;;;4.90;99.90;;;;;;5040458;28;20427;-60
2020/12/06 10:29:56;;;;;;;36.37;16.27;;;5.00;99.90;;;;;;5045243;28;20459;-53
2020/12/06 10:32:21;;;;;;;45.23;15.57;;;5.20;99.90;;;;;;5043588;28;20867;-53
2020/12/06 10:34:47;;;;;;;41.35;14.75;;;4.80;99.90;;;;;;5042537;28;20971;-53
2020/12/06 10:37:13;;;;;;;38.73;15.03;;;4.60;99.90;;;;;;5042694;28;20409;-52
2020/12/06 10:39:38;;;;;;;38.03;15.05;;;4.60;99.90;;;;;;5041625;28;20398;-53
2020/12/06 10:42:04;;;;;;;38.10;17.07;;;4.70;99.90;;;;;;5048639;28;20397;-52
2020/12/06 10:44:30;;;;;;;40.97;16.13;;;4.70;99.90;;;;;;5049607;28;20441;-57
2020/12/06 10:46:55;;;;;;;34.53;14.60;;;4.50;99.90;;;;;;5042902;28;20406;-53
2020/12/06 10:49:21;;;;;;;35.43;14.83;;;4.90;99.90;;;;;;5081276;28;20394;-53
2020/12/06 10:51:50;;;;;;;38.38;15.98;;;4.60;99.90;;;;;;5045808;28;20463;-53
2020/12/06 10:54:16;;;;;;;34.30;13.75;;;4.80;99.90;;;;;;5048706;28;20389;-53
2020/12/06 10:56:43;;;;;;;27.83;13.48;;;6.40;99.90;;;;;;5046364;28;20436;-53
2020/12/06 10:59:09;;;;;;;41.27;16.40;;;5.00;99.90;;;;;;5044269;28;20420;-53
2020/12/06 11:01:35;;;;;;;36.25;15.18;;;5.10;99.90;;;;;;5044262;28;20423;-54
2020/12/06 11:04:03;;;;;;;30.75;13.85;;;5.10;99.90;;;;;;5048526;28;20439;-52
2020/12/06 11:06:29;;;;;;;33.00;13.90;;;5.00;99.90;;;;;;5047039;28;20417;-55
2020/12/06 11:08:54;;;;;;;26.58;12.45;;;5.70;99.90;;;;;;5048007;28;20510;-53
2020/12/06 11:11:21;;;;;;;28.30;13.02;;;5.10;99.90;;;;;;5046469;28;20397;-52
2020/12/06 11:13:47;;;;;;;28.13;12.82;;;5.00;99.90;;;;;;5047752;28;20805;-53
2020/12/06 11:16:18;;;;;;;28.80;12.50;;;2.80;99.90;;;;;;5044117;28;20401;-52
2020/12/06 11:18:44;;;;;;;25.25;12.18;;;4.90;99.90;;;;;;5043212;28;20397;-52
2020/12/06 11:21:10;;;;;;;30.33;12.55;;;4.80;99.90;;;;;;5043369;28;20398;-53
2020/12/06 11:23:36;;;;;;;32.30;14.07;;;4.80;99.90;;;;;;5043790;28;20405;-52
2020/12/06 11:26:02;;;;;;;25.08;13.30;;;4.80;99.90;;;;;;5048874;28;20385;-52
2020/12/06 11:28:28;;;;;;;53.75;21.05;;;4.90;99.90;;;;;;5038189;28;20796;-57
2020/12/06 11:30:53;;;;;;;57.10;21.77;;;4.90;99.90;;;;;;5044615;28;20421;-53
2020/12/06 11:33:19;;;;;;;34.27;15.60;;;4.90;99.90;;;;;;5047437;28;20459;-53
2020/12/06 11:35:46;;;;;;;27.95;13.00;;;5.10;99.90;;;;;;5042411;28;20433;-54
2020/12/06 11:38:11;;;;;;;22.05;11.55;;;5.20;99.90;;;;;;5046168;28;20407;-54
2020/12/06 11:40:37;;;;;;;24.33;11.57;;;5.40;99.90;;;;;;5047415;28;20468;-54
2020/12/06 11:43:03;;;;;;;24.27;11.02;;;5.40;99.90;;;;;;5041927;28;20463;-56
2020/12/06 11:45:29;;;;;;;28.42;12.90;;;6.80;99.90;;;;;;5043472;28;20454;-57
2020/12/06 11:47:54;;;;;;;21.53;10.83;;;6.60;99.90;;;;;;5047254;28;20454;-53
2020/12/06 11:50:20;;;;;;;23.85;11.35;;;5.50;99.90;;;;;;5045533;28;20435;-53
2020/12/06 11:52:45;;;;;;;20.53;11.33;;;5.60;99.90;;;;;;5041799;28;20887;-53
2020/12/06 11:55:11;;;;;;;20.00;10.27;;;6.60;99.90;;;;;;5039769;28;20444;-53
2020/12/06 11:57:37;;;;;;;17.73;9.52;;;5.50;99.90;;;;;;5036929;28;20401;-53
2020/12/06 12:00:09;;;;;;;18.45;9.60;;;5.50;99.90;;;;;;5047153;28;20400;-54
2020/12/06 12:02:35;;;;;;;18.10;9.90;;;5.50;99.90;;;;;;5040823;28;20554;-54
2020/12/06 12:05:00;;;;;;;17.80;10.27;;;5.50;99.90;;;;;;5037798;28;20976;-54
2020/12/06 12:07:26;;;;;;;16.20;10.15;;;5.60;99.90;;;;;;5039115;28;20419;-54
2020/12/06 12:09:52;;;;;;;23.10;14.33;;;5.60;99.90;;;;;;5040377;28;20408;-53
2020/12/06 12:12:18;;;;;;;21.67;13.00;;;5.60;99.90;;;;;;5046916;28;20434;-54
2020/12/06 12:14:44;;;;;;;17.85;10.85;;;5.80;99.90;;;;;;5045487;28;21234;-53
2020/12/06 12:17:09;;;;;;;16.70;10.60;;;5.80;99.90;;;;;;5041811;28;20749;-53
2020/12/06 12:19:35;;;;;;;16.50;9.80;;;5.80;99.90;;;;;;5072676;28;21038;-54
2020/12/06 12:22:01;;;;;;;15.13;9.10;;;5.60;99.90;;;;;;5042605;28;20713;-53
2020/12/06 12:24:27;;;;;;;15.90;8.90;;;5.70;99.90;;;;;;5046327;28;20416;-53
2020/12/06 12:26:57;;;;;;;13.15;8.65;;;5.80;99.90;;;;;;5046291;28;20412;-54
2020/12/06 12:29:23;;;;;;;13.30;8.82;;;5.70;99.90;;;;;;5045980;28;20417;-54
2020/12/06 12:31:48;;;;;;;26.40;14.90;;;5.70;99.90;;;;;;5045390;28;20414;-53
2020/12/06 12:34:16;;;;;;;20.92;12.50;;;5.50;99.90;;;;;;5047458;28;20874;-54